createdAt,value
2022-07-26T00:00:39.188Z,100274.53
2022-07-26T00:04:40.806Z,100276.44
2022-07-26T00:08:42.504Z,100263.69
2022-07-26T00:12:44.143Z,100265.81
2022-07-26T00:16:45.921Z,100269.69
2022-07-26T00:20:48.328Z,100274.16
2022-07-26T00:24:50.193Z,100271.88
2022-07-26T00:28:51.830Z,100283.53
2022-07-26T00:32:53.427Z,100282.03
2022-07-26T00:36:54.987Z,100276.97
2022-07-26T00:40:56.673Z,100290.97
2022-07-26T00:44:58.273Z,100290.03
2022-07-26T00:48:59.899Z,100306.00
2022-07-26T00:53:01.835Z,100310.22
2022-07-26T00:57:04.134Z,100318.94
2022-07-26T01:01:05.787Z,100325.94
2022-07-26T01:05:07.960Z,100324.09
2022-07-26T01:09:10.632Z,100327.50
2022-07-26T01:13:13.131Z,100329.25
2022-07-26T01:17:15.021Z,100332.75
2022-07-26T01:21:16.893Z,100334.59
2022-07-26T01:25:29.474Z,100334.56
2022-07-26T01:29:35.404Z,100341.81
2022-07-26T01:33:38.072Z,100327.03
2022-07-26T01:37:39.717Z,100334.94
2022-07-26T01:41:41.340Z,100339.41
2022-07-26T01:45:42.990Z,100336.25
2022-07-26T01:49:44.710Z,100333.91
2022-07-26T01:53:46.508Z,100340.00
2022-07-26T01:57:48.160Z,100341.69
2022-07-26T02:01:49.861Z,100343.66
2022-07-26T02:05:51.615Z,100345.50
2022-07-26T02:09:54.122Z,100344.78
2022-07-26T02:13:55.701Z,100350.19
2022-07-26T02:17:57.279Z,100345.97
2022-07-26T02:21:59.301Z,100345.97
2022-07-26T02:26:01.529Z,100352.22
2022-07-26T02:30:03.581Z,100354.41
2022-07-26T02:34:05.272Z,100358.31
2022-07-26T02:38:09.655Z,100359.47
2022-07-26T02:42:12.187Z,100361.34
2022-07-26T02:46:13.857Z,100369.25
2022-07-26T02:50:19.372Z,100369.19
2022-07-26T02:54:20.981Z,100374.56
2022-07-26T02:58:24.924Z,100358.81
2022-07-26T03:02:26.527Z,100355.22
2022-07-26T03:06:28.141Z,100355.16
2022-07-26T03:10:29.715Z,100359.53
2022-07-26T03:14:31.830Z,100369.16
2022-07-26T03:18:33.467Z,100361.47
2022-07-26T03:22:35.127Z,100361.56
2022-07-26T03:26:36.749Z,100366.84
2022-07-26T03:30:38.449Z,100358.19
2022-07-26T03:34:39.957Z,100353.88
2022-07-26T03:38:41.537Z,100360.09
2022-07-26T03:42:43.772Z,100367.06
2022-07-26T03:46:45.615Z,100367.00
2022-07-26T03:50:47.197Z,100364.38
2022-07-26T03:54:48.866Z,100376.50
2022-07-26T03:58:50.475Z,100371.19
2022-07-26T04:02:52.417Z,100361.63
2022-07-26T04:06:54.933Z,100366.88
2022-07-26T04:10:56.600Z,100360.81
2022-07-26T04:14:58.144Z,100373.09
2022-07-26T04:18:59.735Z,100374.84
2022-07-26T04:23:01.336Z,100368.72
2022-07-26T04:27:03.018Z,100384.38
2022-07-26T04:31:04.686Z,100377.41
2022-07-26T04:35:06.645Z,100379.97
2022-07-26T04:39:08.311Z,100384.19
2022-07-26T04:43:15.549Z,100395.34
2022-07-26T04:47:17.496Z,100403.19
2022-07-26T04:51:19.115Z,100406.69
2022-07-26T04:55:21.618Z,100405.75
2022-07-26T04:59:23.317Z,100407.41
2022-07-26T05:03:25.411Z,100419.50
2022-07-26T05:07:27.057Z,100416.09
2022-07-26T05:11:28.681Z,100423.31
2022-07-26T05:15:35.578Z,100428.59
2022-07-26T05:19:38.063Z,100436.28
2022-07-26T05:23:39.801Z,100440.31
2022-07-26T05:27:41.812Z,100438.34
2022-07-26T05:31:43.518Z,100452.03
2022-07-26T05:35:45.049Z,100451.88
2022-07-26T05:39:46.665Z,100462.13
2022-07-26T05:43:48.453Z,100450.66
2022-07-26T05:47:51.216Z,100461.00
2022-07-26T05:51:55.871Z,100456.66
2022-07-26T05:55:59.682Z,100462.06
2022-07-26T06:00:01.676Z,100464.84
2022-07-26T06:04:14.142Z,100464.16
2022-07-26T06:08:16.578Z,100470.38
2022-07-26T06:12:18.492Z,100469.66
2022-07-26T06:16:20.072Z,100468.97
2022-07-26T06:20:21.846Z,100471.88
2022-07-26T06:24:23.826Z,100465.13
2022-07-26T06:28:25.494Z,100470.47
2022-07-26T06:32:27.126Z,100479.25
2022-07-26T06:36:31.091Z,100485.38
2022-07-26T06:40:33.666Z,100480.97
2022-07-26T06:44:35.272Z,100480.00
2022-07-26T06:48:36.924Z,100482.53
2022-07-26T06:52:41.040Z,100479.88
2022-07-26T06:56:49.478Z,100482.50
2022-07-26T07:00:51.143Z,100486.91
2022-07-26T07:04:52.877Z,100489.63
2022-07-26T07:08:54.479Z,100492.28
2022-07-26T07:12:56.920Z,100497.44
2022-07-26T07:16:59.119Z,100497.38
2022-07-26T07:21:00.787Z,100492.03
2022-07-26T07:25:02.953Z,100481.69
2022-07-26T07:29:04.806Z,100493.72
2022-07-26T07:33:07.285Z,100481.56
2022-07-26T07:37:08.922Z,100489.31
2022-07-26T07:41:13.928Z,100493.53
2022-07-26T07:45:15.532Z,100494.31
2022-07-26T07:49:17.204Z,100484.59
2022-07-26T07:53:18.844Z,100481.44
2022-07-26T07:57:21.658Z,100474.13
2022-07-26T08:01:39.454Z,100483.84
2022-07-26T08:05:41.560Z,100489.97
2022-07-26T08:09:43.345Z,100480.19
2022-07-26T08:13:47.918Z,100477.91
2022-07-26T08:17:53.761Z,100475.69
2022-07-26T08:21:56.601Z,100475.63
2022-07-26T08:26:03.241Z,100485.41
2022-07-26T08:30:08.468Z,100473.94
2022-07-26T08:34:10.481Z,100472.38
2022-07-26T08:38:12.056Z,100474.69
2022-07-26T08:42:22.604Z,100471.19
2022-07-26T08:46:27.639Z,100482.28
2022-07-26T08:50:30.022Z,100479.19
2022-07-26T08:54:31.665Z,100482.66
2022-07-26T08:58:36.779Z,100493.75
2022-07-26T09:02:41.738Z,100486.47
2022-07-26T09:06:54.494Z,100481.97
2022-07-26T09:10:56.365Z,100480.03
2022-07-26T09:14:59.414Z,100482.88
2022-07-26T09:19:21.278Z,100483.28
2022-07-26T09:23:22.912Z,100476.84
2022-07-26T09:27:28.210Z,100477.72
2022-07-26T09:31:30.140Z,100471.97
2022-07-26T09:35:52.163Z,100483.84
2022-07-26T09:40:01.909Z,100480.75
2022-07-26T09:44:20.830Z,100477.97
2022-07-26T09:48:30.341Z,100477.13
2022-07-26T09:53:03.754Z,100478.53
2022-07-26T09:57:05.416Z,100472.25
2022-07-26T10:01:08.078Z,100476.81
2022-07-26T10:05:10.300Z,100478.78
2022-07-26T10:09:13.514Z,100486.66
2022-07-26T10:13:15.569Z,100488.59
2022-07-26T10:17:31.307Z,100491.28
2022-07-26T10:21:35.187Z,100500.53
2022-07-26T10:25:47.856Z,100485.78
2022-07-26T10:29:49.482Z,100479.09
2022-07-26T10:33:52.906Z,100481.44
2022-07-26T10:38:06.394Z,100477.78
2022-07-26T10:42:10.051Z,100490.06
2022-07-26T10:46:18.433Z,100480.03
2022-07-26T10:50:32.431Z,100481.84
2022-07-26T10:54:56.683Z,100487.25
2022-07-26T10:58:58.545Z,100475.31
2022-07-26T11:03:00.261Z,100469.72
2022-07-26T11:07:01.892Z,100471.09
2022-07-26T11:11:03.506Z,100476.03
2022-07-26T11:15:18.850Z,100474.56
2022-07-26T11:19:27.708Z,100468.13
2022-07-26T11:23:32.298Z,100472.75
2022-07-26T11:27:33.901Z,100467.41
2022-07-26T11:31:55.780Z,100471.94
2022-07-26T11:36:05.663Z,100467.16
2022-07-26T11:40:07.720Z,100457.19
2022-07-26T11:44:20.955Z,100447.28
2022-07-26T11:48:22.584Z,100442.25
2022-07-26T11:52:30.735Z,100450.47
2022-07-26T11:56:32.574Z,100451.78
2022-07-26T12:00:34.383Z,100456.72
2022-07-26T12:04:38.877Z,100453.63
2022-07-26T12:08:42.789Z,100450.75
2022-07-26T12:12:44.459Z,100448.09
2022-07-26T12:16:47.377Z,100453.19
2022-07-26T12:21:08.445Z,100455.06
2022-07-26T12:25:10.680Z,100442.34
2022-07-26T12:29:24.282Z,100435.50
2022-07-26T12:33:25.912Z,100429.44
2022-07-26T12:37:39.974Z,100429.16
2022-07-26T12:41:42.327Z,100426.81
2022-07-26T12:45:43.975Z,100426.34
2022-07-26T12:49:46.669Z,100427.41
2022-07-26T12:53:48.266Z,100431.00
2022-07-26T12:57:49.920Z,100432.06
2022-07-26T13:01:57.525Z,100421.28
2022-07-26T13:05:59.256Z,100427.78
2022-07-26T13:10:31.942Z,100427.94
2022-07-26T13:14:23.467Z,100424.06
2022-07-26T13:18:25.070Z,100421.22
2022-07-26T13:22:26.680Z,100422.88
2022-07-26T13:26:28.763Z,100422.00
2022-07-26T13:30:30.972Z,100421.53
2022-07-26T13:34:35.033Z,100427.56
2022-07-26T13:38:36.978Z,100417.28
2022-07-26T13:42:38.679Z,100411.19
2022-07-26T13:46:40.331Z,100405.66
2022-07-26T13:50:42.137Z,100402.63
2022-07-26T13:54:43.778Z,100396.09
2022-07-26T13:58:45.366Z,100402.94
2022-07-26T14:02:47.005Z,100401.34
2022-07-26T14:06:49.247Z,100402.47
2022-07-26T14:10:50.892Z,100404.25
2022-07-26T14:14:52.513Z,100402.38
2022-07-26T14:18:58.196Z,100394.19
2022-07-26T14:23:00.229Z,100399.34
2022-07-26T14:27:02.979Z,100402.91
2022-07-26T14:31:05.152Z,100404.47
2022-07-26T14:35:07.329Z,100388.03
2022-07-26T14:39:09.143Z,100387.75
2022-07-26T14:43:10.706Z,100386.19
2022-07-26T14:47:12.327Z,100378.59
2022-07-26T14:51:14.332Z,100378.31
2022-07-26T14:55:19.340Z,100378.09
2022-07-26T14:59:22.085Z,100379.91
2022-07-26T15:03:23.727Z,100385.34
2022-07-26T15:07:25.360Z,100386.94
2022-07-26T15:11:26.965Z,100383.63
2022-07-26T15:15:28.858Z,100374.72
2022-07-26T15:19:30.534Z,100362.53
2022-07-26T15:23:32.411Z,100373.06
2022-07-26T15:27:34.043Z,100368.59
2022-07-26T15:31:36.695Z,100369.25
2022-07-26T15:35:40.577Z,100361.41
2022-07-26T15:39:42.296Z,100364.56
2022-07-26T15:43:48.717Z,100360.22
2022-07-26T15:47:59.067Z,100360.00
2022-07-26T15:52:06.532Z,100360.88
2022-07-26T15:56:08.296Z,100360.81
2022-07-26T16:00:12.071Z,100363.13
2022-07-26T16:04:14.402Z,100366.09
2022-07-26T16:08:16.198Z,100346.97
2022-07-26T16:12:17.906Z,100349.66
2022-07-26T16:16:19.603Z,100345.66
2022-07-26T16:20:21.381Z,100337.44
2022-07-26T16:24:23.051Z,100333.69
2022-07-26T16:28:24.660Z,100331.88
2022-07-26T16:32:26.236Z,100327.19
2022-07-26T16:36:27.870Z,100324.00
2022-07-26T16:40:29.557Z,100322.34
2022-07-26T16:44:31.171Z,100325.19
2022-07-26T16:48:32.871Z,100332.88
2022-07-26T16:52:34.539Z,100327.84
2022-07-26T16:56:36.104Z,100327.16
2022-07-26T17:00:37.770Z,100332.69
2022-07-26T17:04:39.483Z,100330.97
2022-07-26T17:08:41.625Z,100331.78
2022-07-26T17:12:43.397Z,100341.59
2022-07-26T17:16:46.841Z,100334.88
2022-07-26T17:20:48.569Z,100334.53
2022-07-26T17:24:50.208Z,100332.53
2022-07-26T17:28:51.804Z,100330.56
2022-07-26T17:32:53.678Z,100326.72
2022-07-26T17:37:03.268Z,100328.91
2022-07-26T17:41:08.608Z,100324.38
2022-07-26T17:45:10.738Z,100326.50
2022-07-26T17:49:12.866Z,100324.09
2022-07-26T17:53:14.730Z,100323.50
2022-07-26T17:57:19.799Z,100327.66
2022-07-26T18:01:21.507Z,100330.50
2022-07-26T18:05:26.126Z,100332.88
2022-07-26T18:09:31.875Z,100326.69
2022-07-26T18:13:33.762Z,100319.44
2022-07-26T18:17:35.595Z,100315.53
2022-07-26T18:21:37.210Z,100315.22
2022-07-26T18:25:38.839Z,100324.34
2022-07-26T18:29:40.465Z,100327.59
2022-07-26T18:33:42.093Z,100324.44
2022-07-26T18:37:43.679Z,100323.97
2022-07-26T18:41:45.338Z,100332.22
2022-07-26T18:45:49.280Z,100324.47
2022-07-26T18:49:51.393Z,100329.19
2022-07-26T18:53:53.436Z,100334.78
2022-07-26T18:57:55.062Z,100339.34
2022-07-26T19:01:58.753Z,100344.63
2022-07-26T19:06:01.690Z,100346.53
2022-07-26T19:10:05.254Z,100344.25
2022-07-26T19:14:07.002Z,100350.63
2022-07-26T19:18:14.580Z,100360.53
2022-07-26T19:22:16.221Z,100361.78
2022-07-26T19:26:17.953Z,100370.66
2022-07-26T19:30:19.665Z,100379.53
2022-07-26T19:34:21.297Z,100377.91
2022-07-26T19:38:23.251Z,100374.53
2022-07-26T19:42:24.862Z,100385.28
2022-07-26T19:46:26.515Z,100391.63
2022-07-26T19:50:28.292Z,100396.25
2022-07-26T19:54:29.974Z,100402.63
2022-07-26T19:58:31.585Z,100416.03
2022-07-26T20:02:33.328Z,100417.28
2022-07-26T20:06:35.238Z,100424.44
2022-07-26T20:10:37.058Z,100422.03
2022-07-26T20:14:38.722Z,100429.31
2022-07-26T20:18:40.317Z,100439.03
2022-07-26T20:22:41.922Z,100446.13
2022-07-26T20:26:43.526Z,100438.44
2022-07-26T20:30:48.203Z,100444.69
2022-07-26T20:34:49.872Z,100448.19
2022-07-26T20:38:51.841Z,100445.53
2022-07-26T20:42:53.523Z,100457.97
2022-07-26T20:46:55.366Z,100455.50
2022-07-26T20:50:56.958Z,100459.88
2022-07-26T20:54:59.021Z,100458.06
2022-07-26T20:59:02.296Z,100454.69
2022-07-26T21:03:04.005Z,100454.84
2022-07-26T21:07:05.580Z,100456.66
2022-07-26T21:11:07.175Z,100460.22
2022-07-26T21:15:09.240Z,100470.69
2022-07-26T21:19:11.244Z,100462.97
2022-07-26T21:23:17.809Z,100476.94
2022-07-26T21:27:20.749Z,100484.81
2022-07-26T21:31:22.334Z,100479.66
2022-07-26T21:35:23.914Z,100485.78
2022-07-26T21:39:25.514Z,100479.72
2022-07-26T21:43:27.175Z,100476.28
2022-07-26T21:47:28.817Z,100481.59
2022-07-26T21:51:30.631Z,100491.19
2022-07-26T21:55:32.288Z,100485.22
2022-07-26T21:59:33.901Z,100493.13
2022-07-26T22:03:36.584Z,100494.03
2022-07-26T22:07:38.240Z,100501.06
2022-07-26T22:11:39.810Z,100497.66
2022-07-26T22:15:42.182Z,100492.53
2022-07-26T22:19:43.777Z,100496.13
2022-07-26T22:23:45.445Z,100500.56
2022-07-26T22:27:47.020Z,100496.25
2022-07-26T22:31:48.639Z,100494.56
2022-07-26T22:35:50.691Z,100501.56
2022-07-26T22:39:52.302Z,100508.63
2022-07-26T22:43:53.908Z,100511.28
2022-07-26T22:47:56.751Z,100502.66
2022-07-26T22:51:58.435Z,100506.13
2022-07-26T22:56:00.094Z,100509.59
2022-07-26T23:00:01.664Z,100510.44
2022-07-26T23:04:03.421Z,100510.50
2022-07-26T23:08:23.583Z,100500.09
2022-07-26T23:12:29.463Z,100492.28
2022-07-26T23:16:31.171Z,100492.31
2022-07-26T23:20:32.950Z,100507.06
2022-07-26T23:24:34.867Z,100511.41
2022-07-26T23:28:38.424Z,100509.69
2022-07-26T23:32:40.248Z,100498.41
2022-07-26T23:36:41.880Z,100500.19
2022-07-26T23:40:43.421Z,100502.78
2022-07-26T23:44:45.761Z,100507.13
2022-07-26T23:48:48.024Z,100508.88
2022-07-26T23:52:49.684Z,100511.50
2022-07-26T23:56:51.299Z,100511.59
